Time;durP1;ratioP1;P1;durP2;ratioP2;P2;SDS_P1;SDS_P2;PMS_P1;PMS_P2;Temp;Humidity;BMP_temperature;BMP_pressure;BME280_temperature;BME280_humidity;BME280_pressure;Samples;Min_cycle;Max_cycle;Signal;HPM_P1;HPM_P2
2022/01/25 00:27:07;;;;;;;34.70;23.08;;;3.30;99.90;;;;;;4976509;28;20195;-80
2022/01/25 00:32:12;;;;;;;28.02;21.42;;;3.40;99.90;;;;;;4975851;28;20290;-80
2022/01/25 00:34:38;;;;;;;34.25;24.10;;;3.40;99.90;;;;;;4958455;28;20284;-79
2022/01/25 00:37:04;;;;;;;29.33;22.42;;;3.40;99.90;;;;;;4975899;28;20177;-78
2022/01/25 00:39:30;;;;;;;27.90;19.85;;;3.40;99.90;;;;;;4975896;28;20247;-78
2022/01/25 00:41:55;;;;;;;25.73;20.23;;;3.50;99.90;;;;;;4975832;28;20665;-80
2022/01/25 00:44:21;;;;;;;22.70;19.80;;;3.50;99.90;;;;;;4975408;28;20265;-80
2022/01/25 00:46:47;;;;;;;22.90;18.77;;;3.50;99.90;;;;;;4977494;28;20188;-80
2022/01/25 00:49:25;;;;;;;21.00;17.77;;;3.60;99.90;;;;;;4978283;28;20616;-81
2022/01/25 00:54:40;;;;;;;20.80;17.23;;;3.50;99.90;;;;;;4978700;28;20212;-79
2022/01/25 00:57:06;;;;;;;23.38;19.25;;;3.50;99.90;;;;;;4978701;28;20173;-79
2022/01/25 00:59:32;;;;;;;22.77;17.33;;;3.50;99.90;;;;;;4978545;28;20243;-78
2022/01/25 01:02:04;;;;;;;23.77;17.93;;;3.40;99.90;;;;;;4978214;28;20209;-78
2022/01/25 01:04:31;;;;;;;25.40;18.95;;;3.40;99.90;;;;;;4978198;28;20165;-79
2022/01/25 01:06:57;;;;;;;22.30;17.75;;;3.40;99.90;;;;;;4978573;28;20537;-79
2022/01/25 01:09:24;;;;;;;24.45;18.45;;;3.50;99.90;;;;;;4978575;28;20208;-80
2022/01/25 01:11:57;;;;;;;28.40;19.70;;;3.50;99.90;;;;;;4977659;28;20196;-79
2022/01/25 01:14:48;;;;;;;26.73;18.15;;;3.50;99.90;;;;;;4978389;28;20538;-79
2022/01/25 01:39:08;;;;;;;21.15;14.93;;;3.40;99.90;;;;;;4977841;28;20173;-82
2022/01/25 01:43:46;;;;;;;20.93;16.03;;;3.50;99.90;;;;;;4977827;28;20209;-80
2022/01/25 01:48:49;;;;;;;18.17;15.67;;;3.60;99.90;;;;;;4977243;28;20651;-80
2022/01/25 01:51:26;;;;;;;19.10;15.25;;;3.60;99.90;;;;;;4977126;28;20192;-81
2022/01/25 01:53:56;;;;;;;16.92;15.10;;;3.60;99.90;;;;;;4977749;28;20537;-79
2022/01/25 01:56:23;;;;;;;18.70;15.52;;;3.60;99.90;;;;;;4977893;28;20171;-80
2022/01/25 01:58:52;;;;;;;18.67;15.82;;;3.60;99.90;;;;;;4959121;28;20184;-79
2022/01/25 02:01:19;;;;;;;23.45;14.20;;;3.60;99.90;;;;;;4977078;28;20244;-79
2022/01/25 02:03:46;;;;;;;17.25;15.35;;;3.60;99.90;;;;;;4976128;28;20272;-80
2022/01/25 02:06:12;;;;;;;19.08;14.80;;;3.60;99.90;;;;;;4977392;28;20272;-80
2022/01/25 02:08:38;;;;;;;19.00;15.20;;;3.60;99.90;;;;;;4977386;28;20700;-80
2022/01/25 02:11:05;;;;;;;16.47;13.97;;;3.70;99.90;;;;;;4975785;28;20308;-80
2022/01/25 02:13:31;;;;;;;18.98;14.20;;;3.70;99.90;;;;;;4977180;28;20449;-80
2022/01/25 02:16:00;;;;;;;16.87;14.00;;;3.60;99.90;;;;;;4975907;28;20180;-80
2022/01/25 02:23:42;;;;;;;20.50;13.70;;;3.60;99.90;;;;;;4977334;28;20188;-79
2022/01/25 02:26:09;;;;;;;15.00;13.40;;;3.60;99.90;;;;;;4977124;28;20173;-80
2022/01/25 02:28:38;;;;;;;14.93;13.40;;;3.50;99.90;;;;;;4977389;28;20199;-80
2022/01/25 02:31:06;;;;;;;16.65;14.85;;;3.50;99.90;;;;;;4976358;28;20212;-79
2022/01/25 02:33:32;;;;;;;17.45;15.27;;;3.60;99.90;;;;;;4976852;28;20174;-77
2022/01/25 02:35:59;;;;;;;18.42;13.82;;;3.60;99.90;;;;;;4976512;28;20175;-79
2022/01/25 02:38:27;;;;;;;21.50;15.73;;;3.60;99.90;;;;;;4976372;28;20192;-79
2022/01/25 02:40:54;;;;;;;16.05;14.02;;;3.50;99.90;;;;;;4974720;28;20193;-79
2022/01/25 02:43:21;;;;;;;17.27;14.30;;;3.50;99.90;;;;;;4976234;28;20208;-80
2022/01/25 02:46:05;;;;;;;22.88;15.32;;;3.60;99.90;;;;;;4976305;28;20648;-80
2022/01/25 02:48:31;;;;;;;17.55;14.93;;;3.60;99.90;;;;;;4976464;28;20176;-79
2022/01/25 02:51:01;;;;;;;16.10;12.70;;;3.60;99.90;;;;;;4974708;28;20212;-79
2022/01/25 02:53:27;;;;;;;17.20;14.75;;;3.60;99.90;;;;;;4976226;28;20173;-81
2022/01/25 02:55:54;;;;;;;18.52;14.68;;;3.60;99.90;;;;;;4976299;28;20612;-80
2022/01/25 02:58:19;;;;;;;19.38;16.08;;;3.60;99.90;;;;;;4976252;28;20264;-80
2022/01/25 03:00:45;;;;;;;18.20;14.82;;;3.60;99.90;;;;;;4975723;28;20264;-81
2022/01/25 03:03:11;;;;;;;17.10;15.10;;;3.60;99.90;;;;;;4975951;28;20208;-80
2022/01/25 03:05:36;;;;;;;19.87;14.47;;;3.60;99.90;;;;;;4976261;28;20226;-80
2022/01/25 03:08:02;;;;;;;19.67;16.20;;;3.60;99.90;;;;;;4975902;28;20645;-81
2022/01/25 03:10:40;;;;;;;20.27;14.83;;;3.60;99.90;;;;;;4975724;28;20208;-80
2022/01/25 03:13:10;;;;;;;20.85;15.18;;;3.60;99.90;;;;;;4975338;28;20284;-81
2022/01/25 03:18:24;;;;;;;18.88;15.15;;;3.60;99.90;;;;;;4975975;28;20181;-79
2022/01/25 03:20:58;;;;;;;20.95;16.33;;;3.60;99.90;;;;;;4975423;28;20495;-80
2022/01/25 03:23:24;;;;;;;19.52;16.50;;;3.60;99.90;;;;;;4975368;28;20223;-82
2022/01/25 03:25:49;;;;;;;20.40;13.90;;;3.60;99.90;;;;;;4975718;28;20184;-80
2022/01/25 03:28:16;;;;;;;24.33;14.80;;;3.60;99.90;;;;;;4975472;28;20255;-79
2022/01/25 03:30:42;;;;;;;19.98;14.70;;;3.60;99.90;;;;;;4975142;28;20201;-81
2022/01/25 03:33:08;;;;;;;21.40;16.83;;;3.60;99.90;;;;;;4975364;28;20569;-80
2022/01/25 03:35:33;;;;;;;24.70;16.87;;;3.60;99.90;;;;;;4974131;28;20626;-78
2022/01/25 03:37:59;;;;;;;22.13;15.70;;;3.60;99.90;;;;;;4975506;28;20187;-78
2022/01/25 03:40:25;;;;;;;20.17;15.70;;;3.60;99.90;;;;;;4975428;28;20322;-79
2022/01/25 03:42:50;;;;;;;21.23;14.93;;;3.70;99.90;;;;;;4974726;28;20251;-82
2022/01/25 03:45:21;;;;;;;21.80;15.37;;;3.70;99.90;;;;;;4974938;28;20179;-80
2022/01/25 03:50:31;;;;;;;19.67;16.15;;;3.70;99.90;;;;;;4975370;28;20251;-80
2022/01/25 03:52:56;;;;;;;25.40;16.57;;;3.80;99.90;;;;;;4975082;28;20201;-79
2022/01/25 03:55:22;;;;;;;22.20;16.97;;;3.80;99.90;;;;;;4975311;28;20581;-81
2022/01/25 03:57:48;;;;;;;23.40;18.27;;;3.80;99.90;;;;;;4975026;28;20225;-80
2022/01/25 04:00:14;;;;;;;21.03;16.93;;;3.60;99.90;;;;;;4975195;28;20924;-79
2022/01/25 04:02:52;;;;;;;25.25;19.63;;;3.50;99.90;;;;;;4975372;28;20197;-80
2022/01/25 04:05:21;;;;;;;25.98;17.67;;;3.40;99.90;;;;;;4974045;28;20176;-81
2022/01/25 04:07:50;;;;;;;20.42;15.00;;;3.40;99.90;;;;;;4973714;28;20228;-80
2022/01/25 04:10:17;;;;;;;21.98;15.98;;;3.30;99.90;;;;;;4975002;28;20291;-80
2022/01/25 04:12:45;;;;;;;22.48;17.50;;;3.20;99.90;;;;;;4974326;28;20740;-79
2022/01/25 04:15:10;;;;;;;21.42;16.42;;;3.10;99.90;;;;;;4974657;28;20173;-80
2022/01/25 04:17:36;;;;;;;20.77;16.03;;;3.00;99.90;;;;;;4973674;28;20180;-79
2022/01/25 04:20:16;;;;;;;23.30;16.38;;;3.00;99.90;;;;;;4973427;28;20181;-81
2022/01/25 04:25:26;;;;;;;24.15;16.73;;;2.90;99.90;;;;;;4974904;28;20223;-80
2022/01/25 04:27:51;;;;;;;19.47;14.03;;;3.00;99.90;;;;;;4973549;28;20198;-78
2022/01/25 04:30:17;;;;;;;28.20;16.60;;;3.00;99.90;;;;;;4975157;28;20619;-79
2022/01/25 04:32:49;;;;;;;25.80;16.30;;;3.00;99.90;;;;;;4974365;28;20208;-79
2022/01/25 04:49:02;;;;;;;29.35;17.25;;;3.00;99.90;;;;;;4974939;28;20206;-81
2022/01/25 04:54:14;;;;;;;23.90;16.48;;;3.00;99.90;;;;;;4975266;28;20262;-79
2022/01/25 04:56:52;;;;;;;27.25;17.67;;;3.00;99.90;;;;;;4973652;28;20644;-81
2022/01/25 05:01:44;;;;;;;24.27;14.83;;;2.80;99.90;;;;;;4974259;28;20561;-79
2022/01/25 05:04:20;;;;;;;24.17;16.13;;;2.80;99.90;;;;;;4973221;28;20161;-81
2022/01/25 05:06:48;;;;;;;26.52;18.20;;;2.80;99.90;;;;;;4974544;28;20171;-78
2022/01/25 05:09:15;;;;;;;24.85;16.73;;;2.80;99.90;;;;;;4974280;28;20197;-79
2022/01/25 05:11:48;;;;;;;27.02;18.77;;;2.70;99.90;;;;;;4973998;28;20245;-81
2022/01/25 05:14:46;;;;;;;24.17;16.80;;;2.70;99.90;;;;;;4974394;28;20550;-80
2022/01/25 05:17:02;;;;;;;25.67;16.63;;;2.80;99.90;;;;;;4973999;28;20233;-80
2022/01/25 05:22:12;;;;;;;29.08;18.30;;;2.60;99.90;;;;;;4974317;28;20290;-82
2022/01/25 05:24:41;;;;;;;28.95;19.27;;;2.70;99.90;;;;;;4973004;28;20284;-80
2022/01/25 05:27:12;;;;;;;23.70;16.13;;;2.70;99.90;;;;;;4974318;28;20180;-82
2022/01/25 05:29:38;;;;;;;22.63;16.05;;;2.70;99.90;;;;;;4974077;28;20203;-80
2022/01/25 05:32:04;;;;;;;28.73;19.00;;;2.70;99.90;;;;;;4973464;28;20192;-82
2022/01/25 05:34:30;;;;;;;24.88;16.75;;;2.50;99.90;;;;;;4960608;28;20464;-81
2022/01/25 05:36:55;;;;;;;28.77;18.17;;;2.50;99.90;;;;;;4977705;28;20207;-82
2022/01/25 05:39:27;;;;;;;29.43;18.63;;;2.50;99.90;;;;;;4977953;28;20184;-80
2022/01/25 05:47:18;;;;;;;30.58;17.20;;;2.50;99.90;;;;;;4977288;28;20266;-81
2022/01/25 05:49:45;;;;;;;27.95;17.25;;;2.50;99.90;;;;;;4977052;28;20209;-79
2022/01/25 05:52:11;;;;;;;25.02;17.42;;;2.50;99.90;;;;;;4975987;28;20628;-79
2022/01/25 05:54:39;;;;;;;29.35;18.23;;;2.50;99.90;;;;;;4977252;28;20204;-80
2022/01/25 05:57:06;;;;;;;28.17;18.25;;;2.50;99.90;;;;;;4977460;28;20183;-79
2022/01/25 05:59:32;;;;;;;24.80;16.83;;;2.60;99.90;;;;;;4976255;28;20258;-79
2022/01/25 06:01:57;;;;;;;26.87;17.50;;;2.50;99.90;;;;;;4977321;28;20200;-79
2022/01/25 06:04:24;;;;;;;28.40;17.37;;;2.60;99.90;;;;;;4977675;28;20263;-79
2022/01/25 06:06:51;;;;;;;29.10;18.35;;;2.60;99.90;;;;;;4977497;28;20183;-79
2022/01/25 06:09:17;;;;;;;25.27;17.80;;;2.60;99.90;;;;;;4977209;28;20271;-79
2022/01/25 06:11:42;;;;;;;27.70;18.40;;;2.50;99.90;;;;;;4976816;28;20201;-78
2022/01/25 06:14:08;;;;;;;28.37;18.00;;;2.40;99.90;;;;;;4977442;28;20192;-79
2022/01/25 06:16:34;;;;;;;32.50;18.07;;;2.30;99.90;;;;;;4977300;28;20204;-79
2022/01/25 06:19:00;;;;;;;29.97;18.17;;;2.20;99.90;;;;;;4975896;28;20554;-79
2022/01/25 06:21:26;;;;;;;31.03;18.77;;;2.20;99.90;;;;;;4976901;28;20208;-79
2022/01/25 06:23:52;;;;;;;31.10;17.95;;;2.30;99.90;;;;;;4976949;28;20272;-80
2022/01/25 06:26:18;;;;;;;33.50;18.13;;;2.30;99.90;;;;;;4976878;28;20263;-80
2022/01/25 06:28:44;;;;;;;31.27;17.73;;;2.40;99.90;;;;;;4975593;28;20187;-78
2022/01/25 06:31:10;;;;;;;29.58;19.02;;;2.40;99.90;;;;;;4976337;28;20211;-81
2022/01/25 06:33:41;;;;;;;30.23;17.03;;;2.30;99.90;;;;;;4976679;28;20663;-79
2022/01/25 06:36:06;;;;;;;32.65;18.90;;;2.20;99.90;;;;;;4976692;28;20416;-80
2022/01/25 06:38:32;;;;;;;32.03;17.80;;;2.20;99.90;;;;;;4959225;28;20662;-79
2022/01/25 06:40:58;;;;;;;32.37;19.50;;;2.30;99.90;;;;;;4974986;28;20196;-80
2022/01/25 06:43:23;;;;;;;31.57;17.90;;;2.20;99.90;;;;;;4975954;28;20263;-81
2022/01/25 06:45:56;;;;;;;31.13;16.90;;;2.30;99.90;;;;;;4975034;28;20191;-78
2022/01/25 06:48:22;;;;;;;31.10;18.20;;;2.30;99.90;;;;;;4976324;28;20226;-80
2022/01/25 06:50:48;;;;;;;36.25;20.23;;;2.40;99.90;;;;;;4975860;28;20538;-81
2022/01/25 06:53:14;;;;;;;36.23;20.30;;;2.30;99.90;;;;;;4976198;28;20355;-79
2022/01/25 06:55:40;;;;;;;34.07;19.53;;;2.40;99.90;;;;;;4976410;28;20181;-80
2022/01/25 06:58:06;;;;;;;33.35;18.35;;;2.40;99.90;;;;;;4976342;28;20644;-79
2022/01/25 07:00:32;;;;;;;32.30;19.38;;;2.30;99.90;;;;;;4975940;28;20262;-79
2022/01/25 07:02:57;;;;;;;30.83;17.97;;;2.30;99.90;;;;;;4975590;28;20290;-79
2022/01/25 07:05:23;;;;;;;38.27;19.77;;;2.40;99.90;;;;;;4976169;28;20184;-79
2022/01/25 07:07:49;;;;;;;32.27;19.30;;;2.40;99.90;;;;;;4974952;28;20188;-81
2022/01/25 07:10:15;;;;;;;29.77;18.30;;;2.40;99.90;;;;;;4976046;28;20211;-80
2022/01/25 07:12:41;;;;;;;33.72;19.60;;;2.30;99.90;;;;;;4975375;28;20684;-80
2022/01/25 07:15:07;;;;;;;31.77;19.10;;;2.20;99.90;;;;;;4975783;28;20242;-80
2022/01/25 07:17:33;;;;;;;33.53;18.38;;;2.30;99.90;;;;;;4975019;28;20266;-79
2022/01/25 07:19:59;;;;;;;29.47;18.90;;;2.20;99.90;;;;;;4976021;28;20267;-80
2022/01/25 07:22:24;;;;;;;33.13;18.93;;;2.30;99.90;;;;;;4975418;28;20800;-79
2022/01/25 07:24:50;;;;;;;33.73;18.83;;;2.20;99.90;;;;;;4975740;28;20424;-78
2022/01/25 07:27:16;;;;;;;35.00;20.00;;;2.20;99.90;;;;;;4974531;28;20196;-78
2022/01/25 07:29:41;;;;;;;31.30;19.00;;;2.30;99.90;;;;;;4971870;28;20565;-78
2022/01/25 07:32:07;;;;;;;34.83;19.50;;;2.40;99.90;;;;;;4970003;28;20560;-79
2022/01/25 07:34:33;;;;;;;38.77;18.73;;;2.30;99.90;;;;;;4975448;28;20187;-80
2022/01/25 07:36:58;;;;;;;35.63;18.43;;;2.10;99.90;;;;;;4973911;28;20510;-80
2022/01/25 07:39:26;;;;;;;33.80;19.10;;;2.10;99.90;;;;;;4975668;28;20181;-79
2022/01/25 07:41:57;;;;;;;37.13;18.83;;;2.20;99.90;;;;;;4974411;28;20200;-81
2022/01/25 07:44:27;;;;;;;40.72;19.92;;;2.10;99.90;;;;;;4970403;28;20547;-78
2022/01/25 07:46:52;;;;;;;39.28;17.90;;;2.10;99.90;;;;;;4974992;28;20187;-80
2022/01/25 07:49:18;;;;;;;39.13;18.87;;;2.20;99.90;;;;;;4964059;28;20552;-81
2022/01/25 07:51:44;;;;;;;36.77;18.67;;;2.10;99.90;;;;;;4964578;28;20194;-80
2022/01/25 07:54:10;;;;;;;38.57;16.60;;;2.10;99.90;;;;;;4967796;28;20632;-81
2022/01/25 07:56:37;;;;;;;32.42;16.38;;;2.10;99.90;;;;;;4962863;28;20185;-80
2022/01/25 07:59:02;;;;;;;30.42;16.98;;;2.20;99.90;;;;;;4956940;28;20705;-79
2022/01/25 08:01:28;;;;;;;35.57;17.60;;;2.20;99.90;;;;;;4955484;29;20209;-79
2022/01/25 08:03:54;;;;;;;30.60;16.30;;;2.30;99.90;;;;;;4957072;29;20181;-79
2022/01/25 08:06:21;;;;;;;33.90;16.77;;;2.30;99.90;;;;;;4955360;29;20185;-79
2022/01/25 08:08:47;;;;;;;35.95;16.35;;;2.30;99.90;;;;;;4956905;28;20744;-82
2022/01/25 08:11:12;;;;;;;33.45;16.73;;;2.30;99.90;;;;;;4956200;28;20222;-81
2022/01/25 08:13:44;;;;;;;30.73;17.53;;;2.30;99.90;;;;;;4956141;29;20186;-81
2022/01/25 08:16:10;;;;;;;30.55;15.45;;;2.30;99.90;;;;;;4955327;29;20188;-79
2022/01/25 08:18:36;;;;;;;34.53;15.67;;;2.30;99.90;;;;;;4954990;29;20177;-78
2022/01/25 08:21:04;;;;;;;26.73;14.47;;;2.30;99.90;;;;;;4955651;29;20205;-80
2022/01/25 08:23:30;;;;;;;30.65;16.25;;;2.40;99.90;;;;;;4956772;28;20183;-78
2022/01/25 08:25:56;;;;;;;36.97;16.87;;;2.40;99.90;;;;;;4956164;29;20531;-80
2022/01/25 08:28:21;;;;;;;29.20;14.87;;;2.40;99.90;;;;;;4956135;29;20189;-79
2022/01/25 08:30:47;;;;;;;33.07;17.17;;;2.40;99.90;;;;;;4955901;28;20194;-80
2022/01/25 08:33:13;;;;;;;28.13;15.18;;;2.20;99.90;;;;;;4955937;28;20260;-80
2022/01/25 08:35:39;;;;;;;28.40;14.90;;;2.30;99.90;;;;;;4954982;29;20627;-80
2022/01/25 08:38:04;;;;;;;36.47;15.60;;;2.30;99.90;;;;;;4961174;28;20434;-82
2022/01/25 08:40:30;;;;;;;26.17;15.23;;;2.20;99.90;;;;;;5051511;23;20244;-81
2022/01/25 08:42:56;;;;;;;30.30;15.03;;;2.20;99.90;;;;;;4955107;28;20198;-81
2022/01/25 08:45:22;;;;;;;36.53;15.80;;;2.10;99.90;;;;;;4956021;28;20283;-78
2022/01/25 08:47:48;;;;;;;28.97;15.27;;;2.10;99.90;;;;;;4955511;28;20184;-79
2022/01/25 08:50:14;;;;;;;30.27;16.73;;;2.10;99.90;;;;;;4955508;28;20289;-79
2022/01/25 08:52:39;;;;;;;34.73;15.83;;;2.20;99.90;;;;;;4953944;28;20203;-79
2022/01/25 08:55:06;;;;;;;30.63;15.00;;;2.10;99.90;;;;;;4955629;28;20177;-78
2022/01/25 08:57:32;;;;;;;29.73;15.27;;;2.10;99.90;;;;;;4954739;29;20428;-78
2022/01/25 08:59:58;;;;;;;32.30;15.45;;;2.30;99.90;;;;;;4955109;28;20213;-78
2022/01/25 09:02:24;;;;;;;36.93;14.70;;;2.40;99.90;;;;;;4955049;28;20193;-78
2022/01/25 09:04:50;;;;;;;29.80;15.17;;;2.40;99.90;;;;;;4955298;28;20200;-79
2022/01/25 09:07:15;;;;;;;28.37;14.50;;;2.30;99.90;;;;;;4956781;28;20191;-79
2022/01/25 09:09:42;;;;;;;31.57;16.00;;;2.40;99.90;;;;;;4958362;29;20203;-79
2022/01/25 09:12:08;;;;;;;35.33;15.85;;;2.40;99.90;;;;;;4959488;28;20200;-79
2022/01/25 09:14:34;;;;;;;28.50;15.55;;;2.50;99.90;;;;;;4958818;29;20174;-80
2022/01/25 09:16:59;;;;;;;28.97;14.97;;;2.40;99.90;;;;;;4959703;28;20188;-77
2022/01/25 09:19:25;;;;;;;26.73;14.70;;;2.40;99.90;;;;;;4958396;28;20232;-83
2022/01/25 09:21:51;;;;;;;39.83;15.90;;;2.50;99.90;;;;;;4959034;28;20211;-81
2022/01/25 09:24:16;;;;;;;25.47;14.80;;;2.60;99.90;;;;;;4959200;28;20177;-81
2022/01/25 09:26:42;;;;;;;27.13;14.10;;;2.60;99.90;;;;;;4959544;28;20423;-81
2022/01/25 09:29:08;;;;;;;32.30;14.23;;;2.60;99.90;;;;;;4958158;28;20189;-80
2022/01/25 09:31:34;;;;;;;26.27;14.10;;;2.70;99.90;;;;;;4957811;28;20213;-80
2022/01/25 09:33:59;;;;;;;29.20;16.00;;;2.60;99.90;;;;;;4958094;28;20191;-81
2022/01/25 09:36:25;;;;;;;28.10;15.30;;;2.50;99.90;;;;;;4959815;28;20559;-81
2022/01/25 09:38:55;;;;;;;26.40;13.50;;;2.40;99.90;;;;;;4959779;28;20189;-82
2022/01/25 09:41:21;;;;;;;28.35;14.07;;;2.30;99.90;;;;;;4959935;28;20212;-82
2022/01/25 09:43:47;;;;;;;27.27;14.00;;;2.20;99.90;;;;;;5055919;23;20241;-81
2022/01/25 09:46:13;;;;;;;29.30;15.97;;;2.20;99.90;;;;;;4998145;28;20547;-80
2022/01/25 09:48:38;;;;;;;34.00;17.07;;;2.30;99.90;;;;;;4999025;28;20430;-79
2022/01/25 09:51:08;;;;;;;36.80;15.80;;;2.40;99.90;;;;;;4998246;28;20216;-79
2022/01/25 09:53:33;;;;;;;33.92;15.00;;;2.30;99.90;;;;;;4979704;28;20561;-79
2022/01/25 09:56:00;;;;;;;28.97;14.03;;;2.30;99.90;;;;;;4979764;28;20181;-80
2022/01/25 09:58:25;;;;;;;38.78;15.27;;;2.40;99.90;;;;;;4978340;28;20218;-81
2022/01/25 10:00:56;;;;;;;33.83;14.50;;;2.50;99.90;;;;;;4979126;28;20189;-79
2022/01/25 10:03:31;;;;;;;29.98;14.95;;;2.40;99.90;;;;;;4979563;28;20197;-79
2022/01/25 10:06:00;;;;;;;37.33;15.18;;;2.20;99.90;;;;;;4977654;28;20282;-80
2022/01/25 10:08:29;;;;;;;31.30;15.48;;;2.20;99.90;;;;;;4977687;28;20656;-80
2022/01/25 10:10:58;;;;;;;33.28;15.80;;;2.30;99.90;;;;;;4977941;28;20284;-80
2022/01/25 10:13:33;;;;;;;34.53;14.75;;;2.30;99.90;;;;;;4977567;28;20557;-81
2022/01/25 10:16:12;;;;;;;35.10;15.20;;;2.30;99.90;;;;;;4977676;28;20163;-80
2022/01/25 10:18:47;;;;;;;36.92;16.77;;;2.20;99.90;;;;;;4976609;28;20274;-80
2022/01/25 10:21:17;;;;;;;35.78;14.80;;;2.20;99.90;;;;;;4977680;28;20173;-79
2022/01/25 10:24:01;;;;;;;32.83;14.38;;;2.10;99.90;;;;;;4978354;28;20175;-77
2022/01/25 10:26:31;;;;;;;42.60;15.85;;;2.10;99.90;;;;;;4977670;28;20263;-79
2022/01/25 10:28:57;;;;;;;41.00;15.60;;;2.30;99.90;;;;;;4978046;28;20537;-79
2022/01/25 10:31:33;;;;;;;38.75;16.23;;;2.50;99.90;;;;;;4977938;28;20310;-79
2022/01/25 10:33:58;;;;;;;34.58;14.60;;;2.40;99.90;;;;;;4977621;28;20179;-79
2022/01/25 10:36:24;;;;;;;30.77;14.30;;;2.40;99.90;;;;;;4977519;28;20603;-80
2022/01/25 10:38:53;;;;;;;31.60;14.83;;;2.40;99.90;;;;;;4977694;28;20184;-80
2022/01/25 10:41:22;;;;;;;34.20;15.75;;;2.40;99.90;;;;;;4977222;28;20431;-80
2022/01/25 10:43:49;;;;;;;36.20;15.75;;;2.40;99.90;;;;;;4976993;28;20268;-81
2022/01/25 10:46:17;;;;;;;33.35;16.30;;;2.40;99.90;;;;;;4977558;28;20538;-79
2022/01/25 10:48:49;;;;;;;36.45;16.13;;;2.40;99.90;;;;;;4975078;28;20191;-80
2022/01/25 10:51:19;;;;;;;39.42;16.25;;;2.40;99.90;;;;;;4976322;28;20561;-79
2022/01/25 10:53:45;;;;;;;32.47;14.60;;;2.30;99.90;;;;;;4976547;28;20195;-81
2022/01/25 10:56:11;;;;;;;36.37;17.07;;;2.40;99.90;;;;;;4975922;28;20184;-80
2022/01/25 10:58:42;;;;;;;39.65;15.98;;;2.50;99.90;;;;;;4976559;28;20264;-79
2022/01/25 11:01:10;;;;;;;37.92;16.35;;;2.70;99.90;;;;;;4976120;28;20709;-79
2022/01/25 11:03:42;;;;;;;34.47;16.35;;;2.90;99.90;;;;;;4976570;28;20192;-79
2022/01/25 11:06:15;;;;;;;43.03;17.73;;;3.10;99.90;;;;;;4976850;28;20169;-81
2022/01/25 11:08:43;;;;;;;33.50;16.35;;;3.20;99.90;;;;;;4976706;28;20182;-82
2022/01/25 11:11:11;;;;;;;33.75;15.25;;;3.30;99.90;;;;;;4975817;28;20710;-81
2022/01/25 11:13:42;;;;;;;31.85;15.82;;;3.30;99.90;;;;;;4976461;28;20672;-79
2022/01/25 11:16:11;;;;;;;35.88;16.00;;;3.30;99.90;;;;;;4976263;28;20177;-79
2022/01/25 11:18:37;;;;;;;35.08;17.25;;;3.30;99.90;;;;;;4974981;28;20551;-78
2022/01/25 11:21:06;;;;;;;39.75;15.68;;;3.30;99.90;;;;;;4975744;28;20215;-82
2022/01/25 11:23:34;;;;;;;35.15;16.35;;;3.40;99.90;;;;;;4976002;28;20177;-79
2022/01/25 11:26:03;;;;;;;32.55;15.98;;;3.40;99.90;;;;;;4976155;28;20177;-81
2022/01/25 11:28:33;;;;;;;33.55;15.18;;;3.50;99.90;;;;;;4975968;28;20184;-81
2022/01/25 11:31:07;;;;;;;28.48;15.35;;;3.50;99.90;;;;;;4975119;28;20212;-80
2022/01/25 11:33:33;;;;;;;40.90;16.40;;;3.40;99.90;;;;;;4976014;28;20175;-81
2022/01/25 11:36:05;;;;;;;33.83;14.98;;;3.50;99.90;;;;;;4975870;28;20637;-82
2022/01/25 11:38:40;;;;;;;38.50;15.77;;;3.50;99.90;;;;;;4975760;28;20177;-81
2022/01/25 11:41:11;;;;;;;39.20;16.30;;;3.70;99.90;;;;;;4975293;28;20188;-82
2022/01/25 11:43:38;;;;;;;30.20;15.13;;;3.60;99.90;;;;;;4975989;28;20184;-79
2022/01/25 11:46:06;;;;;;;34.10;16.13;;;3.70;99.90;;;;;;4974311;28;20200;-80
2022/01/25 11:48:50;;;;;;;30.52;15.25;;;3.80;99.90;;;;;;4975382;28;20181;-81
2022/01/25 11:51:19;;;;;;;32.05;16.52;;;3.90;99.90;;;;;;4974743;28;20303;-80
2022/01/25 11:53:48;;;;;;;42.22;17.80;;;3.90;99.90;;;;;;4957862;28;20177;-80
2022/01/25 11:56:15;;;;;;;34.65;15.57;;;3.90;99.90;;;;;;4975274;28;20216;-81
2022/01/25 11:58:42;;;;;;;31.48;16.40;;;4.00;99.90;;;;;;4974019;28;20608;-79
2022/01/25 12:01:19;;;;;;;40.35;18.60;;;3.90;99.90;;;;;;4974690;28;20571;-80
2022/01/25 12:03:47;;;;;;;39.28;18.08;;;3.90;99.90;;;;;;4975039;28;20180;-78
2022/01/25 12:06:27;;;;;;;46.08;17.35;;;4.00;99.90;;;;;;4975127;28;20177;-80
2022/01/25 12:09:06;;;;;;;35.85;17.70;;;4.00;99.90;;;;;;4973826;28;20185;-79
2022/01/25 12:11:45;;;;;;;39.38;17.25;;;4.00;99.90;;;;;;4973169;28;20745;-78
2022/01/25 12:14:19;;;;;;;39.25;19.00;;;3.90;99.90;;;;;;4974893;28;20173;-79
2022/01/25 12:16:51;;;;;;;32.88;16.10;;;4.10;99.90;;;;;;4974883;28;20243;-82
2022/01/25 12:19:39;;;;;;;36.05;16.73;;;4.20;99.90;;;;;;4975858;28;20177;-80
2022/01/25 12:22:12;;;;;;;35.25;16.55;;;4.10;99.90;;;;;;4972216;28;20213;-79
2022/01/25 12:24:48;;;;;;;31.73;17.60;;;4.00;99.90;;;;;;4976344;28;20165;-79
2022/01/25 12:27:29;;;;;;;38.03;17.15;;;4.10;99.90;;;;;;4976784;28;20187;-80
2022/01/25 12:30:00;;;;;;;47.72;21.25;;;4.20;99.90;;;;;;4977314;28;20696;-79
2022/01/25 12:32:26;;;;;;;39.67;17.73;;;4.10;99.90;;;;;;4976324;28;20199;-82
2022/01/25 12:35:06;;;;;;;50.95;19.90;;;4.10;99.90;;;;;;4975962;28;20181;-79
2022/01/25 12:37:44;;;;;;;37.15;17.23;;;4.10;99.90;;;;;;4976628;28;20215;-78
2022/01/25 12:40:29;;;;;;;36.50;19.20;;;4.20;99.90;;;;;;4975233;28;20517;-78
2022/01/25 12:42:58;;;;;;;41.30;18.38;;;4.10;99.90;;;;;;4975367;28;20196;-78
2022/01/25 12:45:27;;;;;;;37.55;17.10;;;3.80;99.90;;;;;;4976355;28;20602;-80
2022/01/25 12:47:53;;;;;;;40.90;19.23;;;3.90;99.90;;;;;;4976227;28;20180;-79
2022/01/25 12:50:19;;;;;;;31.58;17.45;;;4.00;99.90;;;;;;4976213;28;20197;-81
2022/01/25 12:52:46;;;;;;;38.20;18.57;;;4.00;99.90;;;;;;4974783;28;20256;-80
2022/01/25 12:55:12;;;;;;;41.50;19.73;;;4.20;99.90;;;;;;4976008;28;20172;-81
2022/01/25 12:57:51;;;;;;;39.78;20.80;;;4.10;99.90;;;;;;4974709;28;20191;-80
2022/01/25 13:00:17;;;;;;;44.53;20.08;;;4.30;99.90;;;;;;4976014;28;20169;-79
2022/01/25 13:02:43;;;;;;;40.25;18.92;;;4.20;99.90;;;;;;4975889;28;20288;-81
2022/01/25 13:05:19;;;;;;;38.97;20.80;;;4.20;99.90;;;;;;4976514;28;20181;-79
2022/01/25 13:07:45;;;;;;;40.45;19.35;;;4.20;99.90;;;;;;4976103;28;20585;-79
2022/01/25 13:10:25;;;;;;;38.17;19.15;;;4.30;99.90;;;;;;4976361;28;20324;-79
2022/01/25 13:12:57;;;;;;;36.78;19.23;;;4.40;99.90;;;;;;4976059;28;20196;-79
2022/01/25 13:16:12;;;;;;;41.60;19.80;;;4.20;99.90;;;;;;4976350;28;20180;-80
2022/01/25 13:18:14;;;;;;;33.15;16.25;;;4.10;99.90;;;;;;4961753;28;20196;-79
2022/01/25 13:20:43;;;;;;;57.58;22.60;;;4.00;99.90;;;;;;4975633;28;20212;-81
2022/01/25 13:23:09;;;;;;;49.28;19.67;;;4.00;99.90;;;;;;4975496;28;20212;-81
2022/01/25 13:28:33;;;;;;;41.15;19.02;;;3.70;99.90;;;;;;4976002;28;20557;-82
2022/01/25 13:31:05;;;;;;;45.45;21.80;;;3.60;99.90;;;;;;4973979;28;20287;-81
2022/01/25 13:33:31;;;;;;;45.97;20.65;;;3.80;99.90;;;;;;4975224;28;20632;-79
2022/01/25 13:35:57;;;;;;;46.13;19.17;;;3.90;99.90;;;;;;4957867;28;20204;-79
2022/01/25 13:38:24;;;;;;;42.42;20.17;;;3.90;99.90;;;;;;4974506;28;20709;-79
2022/01/25 13:41:52;;;;;;;48.25;25.00;;;4.00;99.90;;;;;;4973949;28;20206;-80
2022/01/25 13:46:38;;;;;;;46.83;23.08;;;3.80;99.90;;;;;;4974058;28;20177;-80
2022/01/25 13:49:05;;;;;;;44.83;21.20;;;3.80;99.90;;;;;;4973997;28;20176;-80
2022/01/25 13:51:38;;;;;;;48.08;20.58;;;3.80;99.90;;;;;;4973500;28;20208;-80
2022/01/25 13:54:04;;;;;;;43.72;21.20;;;3.80;99.90;;;;;;4974536;28;20276;-79
2022/01/25 13:56:36;;;;;;;42.43;21.00;;;3.80;99.90;;;;;;4977338;28;20676;-78
2022/01/25 13:59:04;;;;;;;49.40;22.58;;;3.90;99.90;;;;;;4976157;28;20178;-78
2022/01/25 14:01:31;;;;;;;39.53;20.60;;;4.00;99.90;;;;;;4976839;28;20196;-81
2022/01/25 14:03:59;;;;;;;44.58;20.88;;;4.10;99.90;;;;;;4977017;28;20705;-81
2022/01/25 14:07:00;;;;;;;44.30;22.17;;;4.10;99.90;;;;;;4975663;28;20211;-80
2022/01/25 14:09:38;;;;;;;45.08;20.63;;;4.00;99.90;;;;;;4943723;28;20224;-80
2022/01/25 14:23:24;;;;;;;42.80;22.20;;;3.90;99.90;;;;;;4976674;28;20199;-81
2022/01/25 14:26:15;;;;;;;56.17;24.38;;;3.80;99.90;;;;;;4975487;28;20188;-79
2022/01/25 14:28:44;;;;;;;44.65;22.20;;;3.90;99.90;;;;;;4976582;28;20176;-80
2022/01/25 14:31:21;;;;;;;45.28;21.95;;;3.80;99.90;;;;;;4975046;28;20211;-81
2022/01/25 14:33:51;;;;;;;48.22;23.33;;;3.80;99.90;;;;;;4976934;28;20173;-79
2022/01/25 14:36:18;;;;;;;58.00;23.98;;;3.80;99.90;;;;;;4976691;28;20185;-81
2022/01/25 14:38:45;;;;;;;45.67;23.33;;;3.80;99.90;;;;;;4976422;28;20172;-79